Time;durP1;ratioP1;P1;durP2;ratioP2;P2;SDS_P1;SDS_P2;PMS_P1;PMS_P2;Temp;Humidity;BMP_temperature;BMP_pressure;BME280_temperature;BME280_humidity;BME280_pressure;Samples;Min_cycle;Max_cycle;Signal;HPM_P1;HPM_P2
2023/10/01 00:00:12;;;;;;;16.40;6.93;;;12.90;99.90;;;;;;4905633;29;20029;-75
2023/10/01 00:02:39;;;;;;;13.40;7.15;;;12.80;99.90;;;;;;4907419;29;20052;-75
2023/10/01 00:05:06;;;;;;;15.68;7.90;;;12.80;99.90;;;;;;4909807;29;20032;-75
2023/10/01 00:07:36;;;;;;;13.77;7.60;;;12.80;99.90;;;;;;4905722;29;20053;-75
2023/10/01 00:10:10;;;;;;;15.98;7.07;;;12.80;99.90;;;;;;4893506;29;20200;-75
2023/10/01 00:12:44;;;;;;;14.07;6.85;;;12.70;99.90;;;;;;4905610;29;20144;-75
2023/10/01 00:15:12;;;;;;;14.70;6.25;;;12.70;99.90;;;;;;4909877;29;20037;-75
2023/10/01 00:17:39;;;;;;;14.40;6.77;;;12.70;99.90;;;;;;4909751;29;20033;-74
2023/10/01 00:20:27;;;;;;;12.65;6.55;;;12.70;99.90;;;;;;4892879;29;20457;-75
2023/10/01 00:22:57;;;;;;;16.15;8.15;;;12.60;99.90;;;;;;4906393;29;20307;-76
2023/10/01 00:25:23;;;;;;;13.90;7.20;;;12.60;99.90;;;;;;4909886;29;20045;-75
2023/10/01 00:27:50;;;;;;;16.23;7.03;;;12.60;99.90;;;;;;4893411;29;20031;-75
2023/10/01 00:30:16;;;;;;;14.27;7.40;;;12.60;99.90;;;;;;4909245;29;20319;-75
2023/10/01 07:18:26;;;;;;;14.20;7.60;;;13.50;99.90;;;;;;5902154;23;20115;31
2023/10/01 07:20:51;;;;;;;13.20;7.05;;;13.70;99.90;;;;;;4870867;29;20075;-76
2023/10/01 07:23:21;;;;;;;16.50;7.47;;;13.70;99.90;;;;;;4873317;29;20041;-76
2023/10/01 07:25:49;;;;;;;12.70;7.28;;;13.90;99.90;;;;;;4873813;29;20067;-75
2023/10/01 07:28:18;;;;;;;14.05;7.10;;;14.00;99.90;;;;;;4873642;29;20109;-75
2023/10/01 07:30:51;;;;;;;14.32;7.13;;;14.00;99.90;;;;;;4873901;29;20105;-75
2023/10/01 07:33:17;;;;;;;13.77;6.97;;;14.10;99.90;;;;;;4873847;29;20092;-83
2023/10/01 07:35:45;;;;;;;14.20;7.38;;;14.20;99.90;;;;;;4873634;29;20109;-75
2023/10/01 07:38:13;;;;;;;14.73;7.53;;;14.30;99.90;;;;;;4869551;29;20025;-76
2023/10/01 07:40:57;;;;;;;14.32;7.53;;;14.40;99.90;;;;;;4872089;29;20070;-76
2023/10/01 07:43:28;;;;;;;15.18;7.43;;;14.40;99.90;;;;;;4874888;29;20037;-77
2023/10/01 07:46:02;;;;;;;12.98;7.70;;;14.60;99.90;;;;;;4856876;29;20045;-76
2023/10/01 07:48:31;;;;;;;13.18;6.90;;;14.50;99.90;;;;;;4873420;29;20108;-76
2023/10/01 07:51:02;;;;;;;14.38;7.13;;;14.50;99.90;;;;;;4873304;29;20029;-75
2023/10/01 07:53:42;;;;;;;13.80;7.47;;;14.50;99.90;;;;;;4872491;29;20025;-75
2023/10/01 07:56:27;;;;;;;13.48;7.32;;;14.60;99.90;;;;;;4877375;29;20024;-81
2023/10/01 08:01:42;;;;;;;13.27;7.20;;;14.90;99.90;;;;;;4891413;29;20310;-77
2023/10/01 08:07:05;;;;;;;14.18;7.45;;;15.00;99.90;;;;;;4872833;29;20352;-76
2023/10/01 08:09:32;;;;;;;16.45;7.32;;;15.10;99.90;;;;;;4861193;29;20061;-75
2023/10/01 08:11:58;;;;;;;13.68;7.80;;;15.10;99.90;;;;;;4869010;29;20018;-75
2023/10/01 08:14:33;;;;;;;14.00;7.32;;;15.20;99.90;;;;;;4852833;29;20041;-76
2023/10/01 08:17:02;;;;;;;14.75;7.30;;;15.30;99.90;;;;;;4879426;29;20033;-76
2023/10/01 08:19:49;;;;;;;12.73;7.05;;;15.40;99.90;;;;;;4879428;29;20321;-76
2023/10/01 08:22:23;;;;;;;12.48;7.07;;;15.60;99.90;;;;;;4874337;29;20210;-77
2023/10/01 08:24:51;;;;;;;13.77;8.05;;;15.70;99.90;;;;;;4874536;29;20037;-77
2023/10/01 08:27:34;;;;;;;13.43;7.40;;;15.80;99.90;;;;;;4891211;29;20096;-76
2023/10/01 08:30:18;;;;;;;15.02;6.90;;;15.80;99.90;;;;;;4891131;29;20048;-76
2023/10/01 08:32:53;;;;;;;11.52;6.60;;;15.90;99.90;;;;;;4890837;29;20040;-74
2023/10/01 08:35:34;;;;;;;12.45;6.93;;;16.10;99.90;;;;;;4874582;29;20088;-76
2023/10/01 08:38:00;;;;;;;14.50;7.10;;;16.20;99.90;;;;;;4890853;29;20048;-75
2023/10/01 08:40:33;;;;;;;15.30;7.50;;;16.40;99.90;;;;;;4871605;29;20040;-74
2023/10/01 08:43:01;;;;;;;15.25;6.78;;;16.40;99.90;;;;;;4891025;29;20045;-75
2023/10/01 08:45:37;;;;;;;16.48;7.82;;;16.50;99.90;;;;;;4890722;29;20040;-74
2023/10/01 08:48:08;;;;;;;17.08;7.43;;;16.50;99.90;;;;;;4891043;29;20409;-75
2023/10/01 08:50:40;;;;;;;13.80;7.03;;;16.60;99.90;;;;;;4890761;29;20112;-74
2023/10/01 08:53:10;;;;;;;14.30;6.90;;;16.70;99.90;;;;;;4891300;29;20037;-75
2023/10/01 08:58:25;;;;;;;15.95;7.45;;;16.90;99.90;;;;;;4890987;29;20040;-75
2023/10/01 09:00:53;;;;;;;14.45;7.28;;;16.90;99.90;;;;;;4890849;29;20029;-74
2023/10/01 09:03:34;;;;;;;15.50;6.65;;;17.10;99.90;;;;;;4890674;29;20052;-75
2023/10/01 09:06:03;;;;;;;16.25;7.38;;;17.10;99.80;;;;;;4890664;29;20285;-75
2023/10/01 09:08:42;;;;;;;14.52;7.15;;;17.20;99.60;;;;;;4890042;29;20057;-76
2023/10/01 09:11:12;;;;;;;11.80;6.38;;;17.30;99.70;;;;;;4890355;29;20069;-74
2023/10/01 09:16:42;;;;;;;14.27;6.68;;;17.60;98.90;;;;;;4889038;29;20247;-74
2023/10/01 09:21:56;;;;;;;13.57;6.68;;;17.90;97.80;;;;;;4890442;29;20044;-74
2023/10/01 09:24:38;;;;;;;12.63;7.03;;;18.10;97.70;;;;;;4890292;29;20044;-74
2023/10/01 09:27:09;;;;;;;15.70;7.13;;;18.20;96.80;;;;;;4889531;29;20052;-75
2023/10/01 09:29:45;;;;;;;15.70;7.40;;;18.20;96.70;;;;;;4890053;29;20071;-75
2023/10/01 09:32:13;;;;;;;11.30;5.95;;;18.30;96.60;;;;;;4886000;29;20083;-76
2023/10/01 09:34:53;;;;;;;12.38;6.03;;;18.50;96.60;;;;;;4889659;29;20055;-75
2023/10/01 09:37:35;;;;;;;15.30;6.93;;;18.70;95.90;;;;;;4890054;29;20100;-75
2023/10/01 09:42:56;;;;;;;10.98;6.13;;;18.70;95.70;;;;;;4890053;29;20041;-75
2023/10/01 09:45:29;;;;;;;10.70;6.18;;;18.80;95.30;;;;;;4858156;29;20037;-75
2023/10/01 09:48:48;;;;;;;11.13;6.30;;;18.90;95.20;;;;;;4885426;29;20043;-74
2023/10/01 09:51:18;;;;;;;13.57;6.60;;;19.10;94.80;;;;;;4889408;29;20049;-74
2023/10/01 09:54:02;;;;;;;12.48;6.20;;;19.10;94.60;;;;;;4889770;29;20064;-74
2023/10/01 09:56:30;;;;;;;13.60;6.60;;;19.30;94.60;;;;;;4889482;29;20028;-75
2023/10/01 09:59:03;;;;;;;12.88;6.25;;;19.40;94.30;;;;;;4889857;29;20033;-74
2023/10/01 10:01:31;;;;;;;14.73;6.53;;;19.50;93.80;;;;;;4888572;29;20377;-74
2023/10/01 10:03:59;;;;;;;11.52;6.00;;;19.60;93.70;;;;;;4886655;29;20047;-74
2023/10/01 10:06:25;;;;;;;13.45;6.25;;;19.80;93.50;;;;;;4889882;29;20040;-74
2023/10/01 10:09:03;;;;;;;13.18;5.97;;;20.00;93.00;;;;;;4889607;29;20037;-73
2023/10/01 10:11:37;;;;;;;11.68;5.45;;;20.10;92.70;;;;;;4888987;29;20029;-75
2023/10/01 10:14:27;;;;;;;9.90;5.82;;;20.20;92.50;;;;;;4889506;29;20088;-76
2023/10/01 10:17:25;;;;;;;11.60;5.57;;;20.40;92.10;;;;;;4857645;29;20346;-74
2023/10/01 10:20:00;;;;;;;14.20;5.88;;;20.50;91.60;;;;;;4856270;29;20053;-73
2023/10/01 10:22:32;;;;;;;12.07;5.90;;;20.60;91.60;;;;;;4870855;29;20104;-74
2023/10/01 10:25:20;;;;;;;12.52;6.05;;;20.70;91.20;;;;;;4854543;29;20042;-74
2023/10/01 10:27:47;;;;;;;12.25;5.85;;;20.80;90.80;;;;;;4870044;29;20089;-74
2023/10/01 10:30:16;;;;;;;12.52;5.78;;;21.00;90.20;;;;;;4870995;29;20037;-74
2023/10/01 10:33:13;;;;;;;9.00;5.28;;;21.10;89.20;;;;;;4870225;29;20093;-73
2023/10/01 10:35:46;;;;;;;11.07;5.63;;;21.20;89.40;;;;;;4888528;29;20099;-74
2023/10/01 10:38:51;;;;;;;12.13;5.85;;;21.20;88.80;;;;;;4889035;29;20064;-74
2023/10/01 10:41:19;;;;;;;11.98;5.75;;;21.40;86.70;;;;;;4890721;29;20029;-73
2023/10/01 10:44:08;;;;;;;12.57;5.57;;;21.50;85.00;;;;;;4894243;29;20093;-73
2023/10/01 10:47:03;;;;;;;11.07;5.60;;;21.70;84.50;;;;;;4891949;29;20370;-74
2023/10/01 10:49:54;;;;;;;12.23;5.70;;;22.10;84.30;;;;;;4886637;29;20100;-74
2023/10/01 10:52:32;;;;;;;12.35;5.60;;;22.50;83.30;;;;;;4893457;29;20089;-73
2023/10/01 10:55:15;;;;;;;;;;;22.90;82.10;;;;;;4893876;29;20033;-75
2023/10/01 10:57:48;;;;;;;11.75;5.75;;;23.50;81.00;;;;;;4888916;29;19908;-75
2023/10/01 11:00:24;;;;;;;11.48;6.05;;;24.20;77.50;;;;;;4872598;29;20029;-74
2023/10/01 11:02:57;;;;;;;11.40;6.13;;;24.90;76.00;;;;;;4888431;29;20025;-74
2023/10/01 11:05:29;;;;;;;10.93;5.82;;;25.40;74.90;;;;;;4883821;29;20064;-72
2023/10/01 11:07:58;;;;;;;13.65;6.72;;;26.20;71.60;;;;;;4888683;29;20021;-73
2023/10/01 11:10:44;;;;;;;9.52;5.72;;;27.00;70.80;;;;;;4888611;29;20108;-74
2023/10/01 11:13:13;;;;;;;10.48;5.85;;;27.70;69.30;;;;;;4888803;29;20318;-74
2023/10/01 11:15:40;;;;;;;10.38;5.93;;;28.30;67.60;;;;;;4888527;29;20057;-75
2023/10/01 11:18:09;;;;;;;9.82;5.65;;;28.90;66.30;;;;;;4872297;29;20025;-73
2023/10/01 11:20:45;;;;;;;10.93;6.60;;;29.10;64.90;;;;;;4880843;29;20049;-73
2023/10/01 11:23:16;;;;;;;11.68;6.20;;;29.40;63.40;;;;;;4870504;29;20045;-75
2023/10/01 11:25:47;;;;;;;10.57;5.85;;;30.20;63.20;;;;;;4869587;29;20042;-74
2023/10/01 11:28:13;;;;;;;12.10;6.50;;;30.60;62.20;;;;;;4870070;29;20109;-74
2023/10/01 11:30:42;;;;;;;12.48;6.65;;;31.20;61.10;;;;;;4869721;29;20294;-74
2023/10/01 11:33:12;;;;;;;10.95;6.60;;;31.50;60.30;;;;;;4870372;29;20053;-74
2023/10/01 11:36:06;;;;;;;11.93;6.13;;;31.80;59.40;;;;;;4869495;29;20072;-74
2023/10/01 11:38:33;;;;;;;11.05;6.63;;;32.10;59.30;;;;;;4869949;29;20032;-74
2023/10/01 11:41:07;;;;;;;10.00;6.13;;;31.80;58.40;;;;;;4870273;29;20070;-75
2023/10/01 11:44:00;;;;;;;11.23;6.45;;;31.80;58.20;;;;;;4869254;29;20025;-75
2023/10/01 11:46:34;;;;;;;13.15;6.68;;;32.10;57.20;;;;;;4869894;29;20072;-73
2023/10/01 11:49:06;;;;;;;10.85;6.25;;;31.70;57.70;;;;;;4853681;29;20038;-73
2023/10/01 11:54:25;;;;;;;12.23;6.68;;;32.80;57.20;;;;;;4888695;29;20311;-73
2023/10/01 11:57:04;;;;;;;11.55;6.55;;;33.20;56.50;;;;;;4887932;29;20036;-74
2023/10/01 11:59:42;;;;;;;10.68;6.68;;;33.60;55.60;;;;;;4890024;29;20192;-74
2023/10/01 12:02:20;;;;;;;11.10;6.35;;;33.70;55.30;;;;;;4891881;29;20041;-73
2023/10/01 12:04:56;;;;;;;10.80;6.40;;;34.30;55.10;;;;;;4891550;29;20310;-73
2023/10/01 12:07:26;;;;;;;10.20;6.45;;;35.00;53.50;;;;;;4887376;29;20029;-73
2023/10/01 12:09:54;;;;;;;9.90;6.15;;;34.50;53.40;;;;;;4891347;29;20196;-74
2023/10/01 12:12:36;;;;;;;11.80;6.68;;;35.00;53.60;;;;;;4892168;29;20112;-73
2023/10/01 12:17:48;;;;;;;10.52;6.50;;;35.60;52.50;;;;;;4891103;29;20333;-75
2023/10/01 12:20:22;;;;;;;10.60;6.30;;;35.50;52.10;;;;;;4891501;29;20052;-75
2023/10/01 12:23:10;;;;;;;10.18;6.20;;;36.40;51.70;;;;;;4887913;29;20108;-74
2023/10/01 12:25:53;;;;;;;10.40;6.03;;;36.10;51.20;;;;;;4874555;29;20057;-75
2023/10/01 12:28:23;;;;;;;10.23;5.75;;;36.60;50.80;;;;;;4891321;29;20073;-74
2023/10/01 12:31:00;;;;;;;10.63;6.25;;;36.70;51.10;;;;;;4891259;29;20096;-74
2023/10/01 12:33:50;;;;;;;10.13;6.40;;;37.20;49.90;;;;;;4891665;29;20072;-75
2023/10/01 12:36:32;;;;;;;;;;;37.70;49.60;;;;;;4891687;29;20045;-75
2023/10/01 12:42:11;;;;;;;9.85;6.55;;;37.70;49.00;;;;;;4872747;29;20092;-74
2023/10/01 12:44:30;;;;;;;9.77;6.30;;;37.70;48.90;;;;;;4871655;29;20124;-75
2023/10/01 12:47:02;;;;;;;11.75;6.90;;;38.20;48.80;;;;;;4872067;29;20101;-74
2023/10/01 12:49:28;;;;;;;11.05;6.25;;;38.60;47.60;;;;;;4872308;29;20030;-75
2023/10/01 12:51:54;;;;;;;10.45;6.07;;;38.60;48.40;;;;;;4872163;29;20070;-75
2023/10/01 12:54:28;;;;;;;10.13;6.32;;;38.40;47.70;;;;;;4872909;29;20100;-74
2023/10/01 12:57:09;;;;;;;10.48;6.18;;;38.10;47.60;;;;;;4890547;29;20254;-74
2023/10/01 12:59:44;;;;;;;9.85;6.18;;;38.20;47.30;;;;;;4890914;29;20033;-74
2023/10/01 13:02:28;;;;;;;10.57;6.22;;;38.60;47.10;;;;;;4890795;29;20073;-73
2023/10/01 13:05:16;;;;;;;9.35;6.22;;;39.00;47.50;;;;;;4890550;29;20041;-74
2023/10/01 13:07:47;;;;;;;9.45;5.88;;;39.70;46.80;;;;;;4890257;29;20037;-74
2023/10/01 13:10:14;;;;;;;8.85;5.63;;;39.80;45.80;;;;;;4883367;29;20267;-74
2023/10/01 13:12:53;;;;;;;9.93;6.30;;;39.50;46.60;;;;;;4871414;29;20041;-75
2023/10/01 13:15:29;;;;;;;9.80;5.88;;;40.40;45.70;;;;;;4872203;29;20041;-75
2023/10/01 13:18:00;;;;;;;9.43;5.70;;;40.70;45.70;;;;;;4871799;29;20375;-73
2023/10/01 13:20:28;;;;;;;9.75;6.30;;;41.20;44.90;;;;;;4872044;29;20068;-75
2023/10/01 13:23:06;;;;;;;8.10;5.78;;;41.00;44.20;;;;;;4871574;29;20044;-74
2023/10/01 13:25:39;;;;;;;10.15;6.57;;;41.50;45.30;;;;;;4856385;29;20219;-74
2023/10/01 13:28:05;;;;;;;9.63;6.10;;;40.70;43.50;;;;;;4886843;29;20068;-74
2023/10/01 13:31:03;;;;;;;10.43;7.20;;;41.00;45.00;;;;;;4890671;29;20029;-74
2023/10/01 13:33:20;;;;;;;11.38;6.40;;;41.60;43.60;;;;;;4890523;29;20806;-76
2023/10/01 13:36:12;;;;;;;11.20;7.28;;;42.10;43.40;;;;;;4889760;29;20108;-74
2023/10/01 13:38:55;;;;;;;9.00;5.93;;;42.40;42.80;;;;;;4890532;29;20036;-74
2023/10/01 14:08:43;;;;;;;9.32;6.47;;;43.30;40.80;;;;;;4871403;29;20089;-74
2023/10/01 14:11:10;;;;;;;10.18;6.03;;;43.70;40.70;;;;;;4870004;29;20080;-75
2023/10/01 14:13:36;;;;;;;9.20;6.55;;;43.30;40.80;;;;;;4871034;29;20029;-75
2023/10/01 14:16:12;;;;;;;8.77;6.13;;;42.30;40.00;;;;;;4870502;29;20249;-74
2023/10/01 14:18:53;;;;;;;8.90;6.07;;;42.80;40.40;;;;;;4870889;29;20045;-75
2023/10/01 14:21:27;;;;;;;9.88;6.50;;;43.70;40.10;;;;;;4870913;29;20037;-74
2023/10/01 14:23:57;;;;;;;9.15;5.88;;;44.10;40.00;;;;;;4870740;29;20040;-74
2023/10/01 14:26:33;;;;;;;9.50;6.95;;;44.40;39.80;;;;;;4870918;29;20053;-74
2023/10/01 14:29:00;;;;;;;11.37;6.17;;;44.20;40.20;;;;;;4870418;29;20231;-75
2023/10/01 14:34:10;;;;;;;8.25;5.85;;;44.20;40.60;;;;;;4870928;29;20044;-75
2023/10/01 14:36:42;;;;;;;10.57;6.97;;;44.20;39.10;;;;;;4870624;29;20061;-75
2023/10/01 14:39:09;;;;;;;8.48;6.00;;;44.10;39.40;;;;;;4870686;29;20189;-73
2023/10/01 14:41:41;;;;;;;9.68;6.82;;;43.50;39.30;;;;;;4870493;29;20096;-75
2023/10/01 14:44:08;;;;;;;9.27;6.28;;;42.90;39.60;;;;;;4874615;29;20032;-75
2023/10/01 14:46:37;;;;;;;10.45;6.28;;;43.10;39.40;;;;;;4870707;29;20057;-75
2023/10/01 14:49:06;;;;;;;8.55;5.80;;;42.30;39.20;;;;;;4869973;29;20049;-74
2023/10/01 14:51:34;;;;;;;10.13;5.82;;;42.80;40.20;;;;;;4870510;29;20140;-75
2023/10/01 14:54:01;;;;;;;8.40;6.03;;;43.60;40.30;;;;;;4870138;29;20347;-74
2023/10/01 14:56:31;;;;;;;7.75;5.70;;;44.60;40.10;;;;;;4870806;29;20044;-74
2023/10/01 14:59:04;;;;;;;8.65;5.60;;;44.90;39.20;;;;;;4870196;29;20319;-74
2023/10/01 15:01:37;;;;;;;8.32;5.70;;;44.30;39.10;;;;;;4894263;29;20099;-73
2023/10/01 15:04:21;;;;;;;10.48;6.70;;;44.10;38.70;;;;;;4899855;29;20033;-74
2023/10/01 15:06:57;;;;;;;9.23;5.57;;;44.80;38.90;;;;;;4900327;29;20051;-74
2023/10/01 15:09:32;;;;;;;8.68;6.25;;;44.40;38.80;;;;;;4890511;29;20068;-75
2023/10/01 15:11:58;;;;;;;9.07;5.70;;;43.70;39.00;;;;;;4888979;29;20036;-74
2023/10/01 15:14:26;;;;;;;8.98;5.65;;;43.90;39.30;;;;;;4889200;29;20052;-74
2023/10/01 15:16:59;;;;;;;9.15;5.88;;;43.30;39.50;;;;;;4883917;29;20093;-74
2023/10/01 15:19:25;;;;;;;8.65;5.63;;;43.40;39.10;;;;;;4888673;29;20081;-76
2023/10/01 15:22:08;;;;;;;9.02;5.78;;;42.60;38.40;;;;;;4888458;29;20041;-76
2023/10/01 15:24:42;;;;;;;8.93;6.03;;;42.00;38.50;;;;;;4888625;29;20234;-75
2023/10/01 15:27:23;;;;;;;8.85;6.00;;;40.90;39.50;;;;;;4888556;29;20235;-75
2023/10/01 15:29:52;;;;;;;9.57;5.88;;;39.80;39.80;;;;;;4888308;29;20059;-75
2023/10/01 15:32:19;;;;;;;11.63;6.18;;;39.90;39.20;;;;;;4884486;29;20124;-74
2023/10/01 15:34:44;;;;;;;9.63;5.68;;;39.60;39.30;;;;;;4891131;29;20029;-74
2023/10/01 15:37:11;;;;;;;9.52;5.70;;;40.10;39.40;;;;;;4891924;29;20215;-75
2023/10/01 15:39:38;;;;;;;9.68;6.15;;;39.70;38.30;;;;;;4892458;29;20041;-74
2023/10/01 15:42:12;;;;;;;9.73;6.18;;;38.70;39.10;;;;;;4891636;29;20028;-74
2023/10/01 15:44:45;;;;;;;9.45;5.88;;;37.50;39.60;;;;;;4892227;29;20108;-74
2023/10/01 15:47:11;;;;;;;9.80;5.50;;;37.10;42.10;;;;;;4887333;29;20041;-74
2023/10/01 15:49:39;;;;;;;8.70;5.35;;;36.60;40.50;;;;;;4892092;29;20065;-74
2023/10/01 15:52:12;;;;;;;9.82;6.05;;;36.50;42.70;;;;;;4891414;29;20032;-74
2023/10/01 15:54:39;;;;;;;9.50;5.20;;;36.90;43.00;;;;;;4892273;29;20049;-75
2023/10/01 15:57:04;;;;;;;8.30;5.10;;;37.60;41.80;;;;;;4875194;29;20021;-75
2023/10/01 15:59:30;;;;;;;9.43;5.30;;;38.60;41.60;;;;;;4892153;29;20112;-74
2023/10/01 16:01:59;;;;;;;12.55;5.85;;;39.00;41.20;;;;;;4872890;29;20037;-75
2023/10/01 16:04:25;;;;;;;11.10;6.00;;;38.90;41.60;;;;;;4889861;29;20105;-75
2023/10/01 16:07:01;;;;;;;10.07;5.60;;;38.20;42.10;;;;;;4891443;29;20239;-75
2023/10/01 16:09:38;;;;;;;8.98;5.45;;;37.80;41.40;;;;;;4892007;29;20099;-75
2023/10/01 16:12:09;;;;;;;11.52;5.70;;;37.70;41.80;;;;;;4891295;29;20056;-74
2023/10/01 16:14:36;;;;;;;10.23;6.25;;;37.50;42.60;;;;;;4891803;29;20052;-74
2023/10/01 16:17:18;;;;;;;12.40;6.22;;;37.10;41.60;;;;;;4890933;29;20355;-74
2023/10/01 16:19:55;;;;;;;10.00;6.13;;;36.90;42.10;;;;;;4887942;29;20088;-75
2023/10/01 16:22:22;;;;;;;9.10;5.43;;;36.40;42.70;;;;;;4891772;29;20039;-74
2023/10/01 16:24:50;;;;;;;10.52;6.38;;;35.40;44.30;;;;;;4891451;29;20100;-74
2023/10/01 16:27:26;;;;;;;;;;;34.40;45.50;;;;;;4875389;29;20226;-75
2023/10/01 16:30:11;;;;;;;9.15;5.55;;;33.40;46.30;;;;;;4891131;29;19908;-75
2023/10/01 16:32:47;;;;;;;10.13;6.05;;;32.40;47.40;;;;;;4891588;29;20033;-74
2023/10/01 16:35:23;;;;;;;12.02;6.07;;;31.60;47.60;;;;;;4886633;29;20265;-75
2023/10/01 16:37:56;;;;;;;9.15;5.22;;;30.80;49.10;;;;;;4891556;29;20051;-74
2023/10/01 16:40:27;;;;;;;10.43;5.35;;;30.10;49.50;;;;;;4891173;29;20041;-74
2023/10/01 16:42:55;;;;;;;11.63;6.20;;;29.60;50.50;;;;;;4890796;29;20326;-75
2023/10/01 16:45:25;;;;;;;11.45;6.05;;;29.10;50.70;;;;;;4874028;29;20076;-74
2023/10/01 16:47:52;;;;;;;11.45;6.03;;;28.80;51.50;;;;;;4890598;29;20047;-75
2023/10/01 16:50:48;;;;;;;12.85;7.55;;;28.40;52.20;;;;;;4886892;29;20041;-74
2023/10/01 16:53:18;;;;;;;14.50;7.10;;;27.80;52.60;;;;;;4890900;29;20057;-74
2023/10/01 16:55:53;;;;;;;12.70;6.25;;;27.30;54.40;;;;;;4890793;29;20226;-74
2023/10/01 16:58:24;;;;;;;13.20;6.35;;;27.00;54.80;;;;;;4874693;29;20048;-74
2023/10/01 17:00:50;;;;;;;12.98;6.65;;;26.70;55.90;;;;;;4891104;29;20114;-74
2023/10/01 17:03:16;;;;;;;13.60;7.10;;;26.40;55.50;;;;;;4890651;29;20215;-74
2023/10/01 17:05:42;;;;;;;11.75;6.55;;;26.10;57.00;;;;;;4879351;29;20061;-74
2023/10/01 17:08:14;;;;;;;14.80;7.70;;;25.90;56.90;;;;;;4871929;29;20041;-74
2023/10/01 17:10:42;;;;;;;13.23;7.20;;;25.70;57.50;;;;;;4872397;29;20063;-74
2023/10/01 17:13:12;;;;;;;16.33;8.18;;;25.50;57.50;;;;;;4871377;29;20047;-74
2023/10/01 17:15:41;;;;;;;13.13;7.00;;;25.10;58.40;;;;;;4871882;29;20328;-74
2023/10/01 17:18:14;;;;;;;12.82;6.68;;;24.70;59.00;;;;;;4871318;29;20025;-75
2023/10/01 17:20:41;;;;;;;13.48;6.68;;;24.50;59.50;;;;;;4871510;29;20037;-74
2023/10/01 17:23:11;;;;;;;13.60;6.80;;;24.30;59.70;;;;;;4871446;29;20044;-74
2023/10/01 17:25:45;;;;;;;13.35;7.03;;;24.20;60.30;;;;;;4871713;29;20313;-76
2023/10/01 17:28:23;;;;;;;14.00;7.55;;;24.10;60.80;;;;;;4854617;29;20216;-74
2023/10/01 17:30:52;;;;;;;15.77;8.23;;;23.90;61.20;;;;;;4871740;29;20303;-74
2023/10/01 17:33:32;;;;;;;16.85;9.48;;;23.70;61.90;;;;;;4871529;29;20045;-73
2023/10/01 17:36:04;;;;;;;15.38;8.25;;;23.40;62.20;;;;;;4854874;29;20037;-73
2023/10/01 17:38:37;;;;;;;18.10;10.25;;;23.40;62.80;;;;;;4871829;29;20211;-74
2023/10/01 17:41:18;;;;;;;18.10;9.65;;;23.20;63.50;;;;;;4871497;29;20092;-73
2023/10/01 17:43:58;;;;;;;15.25;8.38;;;23.20;63.50;;;;;;4871483;29;20200;-75
2023/10/01 17:46:39;;;;;;;13.07;7.05;;;23.00;63.40;;;;;;4871481;29;20323;-72
2023/10/01 17:49:06;;;;;;;14.48;7.28;;;22.80;63.60;;;;;;4870982;29;20044;-74
2023/10/01 17:51:40;;;;;;;13.35;7.03;;;22.60;63.50;;;;;;4855088;29;20029;-73
2023/10/01 17:54:06;;;;;;;14.15;7.68;;;22.60;64.30;;;;;;4870825;29;20065;-73
2023/10/01 17:56:43;;;;;;;15.57;7.80;;;22.40;64.50;;;;;;4870463;29;20036;-73
2023/10/01 17:59:15;;;;;;;15.15;7.32;;;22.20;65.00;;;;;;4871042;29;20056;-75
2023/10/01 18:01:44;;;;;;;15.88;7.30;;;22.00;65.50;;;;;;4871117;29;20044;-74
2023/10/01 18:04:16;;;;;;;13.82;6.90;;;21.80;66.00;;;;;;4870603;29;20274;-74
2023/10/01 18:06:57;;;;;;;16.10;7.13;;;21.70;66.10;;;;;;4871155;29;20315;-75
2023/10/01 18:09:25;;;;;;;13.25;6.70;;;21.50;66.00;;;;;;4871605;29;20040;-74
2023/10/01 18:12:01;;;;;;;14.60;6.87;;;21.40;66.00;;;;;;4889557;29;20212;-74
2023/10/01 18:14:33;;;;;;;12.57;6.35;;;21.30;66.20;;;;;;4889725;29;20434;-73
2023/10/01 18:17:03;;;;;;;11.75;6.30;;;21.20;66.50;;;;;;4889318;29;20060;-74
2023/10/01 18:19:33;;;;;;;15.02;7.70;;;21.10;66.90;;;;;;4889321;29;20059;-75
2023/10/01 18:21:59;;;;;;;13.07;7.28;;;21.10;68.50;;;;;;4889233;29;20041;-74
2023/10/01 18:24:26;;;;;;;14.70;7.90;;;21.00;68.70;;;;;;4875305;29;20028;-73
2023/10/01 18:26:54;;;;;;;14.00;7.38;;;20.80;68.50;;;;;;4870758;29;20113;-74
2023/10/01 18:29:23;;;;;;;15.37;7.20;;;20.60;69.10;;;;;;4864682;29;20051;-74
2023/10/01 18:31:49;;;;;;;13.85;7.13;;;20.30;69.70;;;;;;4889687;29;20441;-75
2023/10/01 18:34:30;;;;;;;15.10;7.53;;;20.20;70.10;;;;;;4888752;29;20084;-74
2023/10/01 18:37:01;;;;;;;12.75;6.30;;;20.00;70.60;;;;;;4900275;29;20048;-74
2023/10/01 18:39:32;;;;;;;14.10;7.28;;;19.90;70.80;;;;;;4870502;29;20338;-74
2023/10/01 18:42:04;;;;;;;13.60;6.93;;;19.90;71.10;;;;;;4870256;29;20053;-76
2023/10/01 18:44:30;;;;;;;14.35;7.72;;;19.90;71.60;;;;;;4870782;29;20049;-74
2023/10/01 18:47:05;;;;;;;13.45;7.75;;;19.90;71.80;;;;;;4870608;29;20049;-74
2023/10/01 18:49:31;;;;;;;18.95;8.35;;;19.70;72.30;;;;;;4870498;29;20056;-74
2023/10/01 18:51:57;;;;;;;15.73;7.68;;;19.60;73.00;;;;;;4870607;29;20370;-74
2023/10/01 18:54:26;;;;;;;13.18;7.25;;;19.40;73.50;;;;;;4853786;29;20022;-74
2023/10/01 18:56:59;;;;;;;13.38;7.20;;;19.40;73.50;;;;;;4887807;29;20037;-74
2023/10/01 18:59:26;;;;;;;15.52;8.02;;;19.40;73.70;;;;;;4889221;29;20067;-75
2023/10/01 19:01:56;;;;;;;14.55;8.18;;;19.40;73.70;;;;;;4888991;29;20204;-75
2023/10/01 19:04:27;;;;;;;17.75;8.73;;;19.40;74.20;;;;;;4888466;29;20087;-75
2023/10/01 19:06:54;;;;;;;14.88;8.18;;;19.50;74.30;;;;;;4888620;29;20072;-74
2023/10/01 19:09:21;;;;;;;19.65;9.73;;;19.40;74.80;;;;;;4893720;29;20039;-75
2023/10/01 19:11:53;;;;;;;17.83;9.93;;;19.20;75.60;;;;;;4878293;29;20045;-73
2023/10/01 19:14:20;;;;;;;17.02;9.00;;;19.10;76.60;;;;;;4859393;29;20311;-74
2023/10/01 19:16:47;;;;;;;18.38;8.73;;;18.90;76.70;;;;;;4876527;29;20056;-74
2023/10/01 19:19:21;;;;;;;18.83;8.90;;;18.80;77.70;;;;;;4876828;29;20109;-75
2023/10/01 19:21:54;;;;;;;17.27;8.07;;;18.60;78.40;;;;;;4871011;29;20033;-75
2023/10/01 19:24:21;;;;;;;17.20;8.70;;;18.60;78.00;;;;;;4869946;29;20308;-73
2023/10/01 19:26:48;;;;;;;16.02;8.55;;;18.50;78.30;;;;;;4894126;29;20065;-75
2023/10/01 19:29:18;;;;;;;15.18;7.85;;;18.40;79.00;;;;;;4895979;29;20040;-75
2023/10/01 19:31:46;;;;;;;17.02;9.07;;;18.30;79.30;;;;;;4879168;29;20303;-74
2023/10/01 19:34:13;;;;;;;14.83;8.67;;;18.30;79.90;;;;;;4878619;29;20064;-74
2023/10/01 19:36:46;;;;;;;16.17;8.40;;;18.10;80.30;;;;;;4894895;29;20489;-75
2023/10/01 19:39:22;;;;;;;16.13;8.35;;;18.10;80.20;;;;;;4894751;29;20032;-75
2023/10/01 19:41:59;;;;;;;18.77;9.57;;;18.10;80.20;;;;;;4888445;29;20039;-76
2023/10/01 19:44:30;;;;;;;19.17;9.82;;;18.20;79.80;;;;;;4875765;29;20037;-76
2023/10/01 19:47:14;;;;;;;18.10;9.10;;;18.20;79.90;;;;;;4876292;29;20045;-76
2023/10/01 19:49:41;;;;;;;16.98;9.50;;;18.10;80.50;;;;;;4876107;29;20053;-75
2023/10/01 19:52:19;;;;;;;17.10;9.73;;;17.90;82.00;;;;;;4875832;29;20051;-75
2023/10/01 19:54:44;;;;;;;18.43;9.17;;;17.80;82.10;;;;;;4876317;29;20049;-75
2023/10/01 19:57:17;;;;;;;17.60;9.88;;;17.80;82.00;;;;;;4876447;29;20779;-74
2023/10/01 19:59:47;;;;;;;18.58;9.55;;;17.70;82.60;;;;;;4875941;29;20104;-74
2023/10/01 20:02:22;;;;;;;17.05;9.73;;;17.60;82.50;;;;;;4875898;29;20048;-75
2023/10/01 20:04:48;;;;;;;18.05;9.70;;;17.60;82.90;;;;;;4859673;29;20041;-75
2023/10/01 20:07:19;;;;;;;18.52;9.85;;;17.50;83.70;;;;;;4875287;29;20046;-75
2023/10/01 20:09:46;;;;;;;23.27;10.70;;;17.50;83.00;;;;;;4875878;29;20056;-74
2023/10/01 20:12:17;;;;;;;20.25;10.38;;;17.40;84.30;;;;;;4875557;29;20092;-75
2023/10/01 20:14:43;;;;;;;17.60;10.05;;;17.40;83.40;;;;;;4890699;29;20311;-75
2023/10/01 20:17:08;;;;;;;23.33;10.40;;;17.40;84.00;;;;;;4877620;29;20097;-76
2023/10/01 20:19:43;;;;;;;20.52;9.90;;;17.30;85.30;;;;;;4892575;29;20045;-75
2023/10/01 20:22:19;;;;;;;18.73;9.52;;;17.20;85.50;;;;;;4891446;29;20036;-76
2023/10/01 20:24:47;;;;;;;18.02;9.90;;;17.10;84.90;;;;;;4891844;29;20104;-75
2023/10/01 20:27:13;;;;;;;19.20;10.35;;;17.10;84.40;;;;;;4891346;29;20045;-75
2023/10/01 20:29:39;;;;;;;19.02;10.07;;;17.10;85.20;;;;;;4865302;29;20021;-74
2023/10/01 20:32:07;;;;;;;18.75;10.02;;;17.10;84.50;;;;;;4856197;29;20032;-75
2023/10/01 20:34:41;;;;;;;19.23;10.52;;;17.00;85.40;;;;;;4872744;29;20049;-74
2023/10/01 20:37:18;;;;;;;20.95;10.00;;;17.00;85.60;;;;;;4875392;29;20333;-74
2023/10/01 20:39:43;;;;;;;19.15;9.10;;;16.90;86.60;;;;;;4890963;29;20104;-74
2023/10/01 20:42:16;;;;;;;18.42;9.48;;;16.80;86.50;;;;;;4890931;29;20036;-75
2023/10/01 20:44:46;;;;;;;20.40;9.07;;;16.70;86.10;;;;;;4886819;29;20017;-75
2023/10/01 20:47:16;;;;;;;17.10;8.45;;;16.70;86.90;;;;;;4890692;29;20049;-74